Time;durP1;ratioP1;P1;durP2;ratioP2;P2;SDS_P1;SDS_P2;PMS_P1;PMS_P2;Temp;Humidity;BMP_temperature;BMP_pressure;BME280_temperature;BME280_humidity;BME280_pressure;Samples;Min_cycle;Max_cycle;Signal;HPM_P1;HPM_P2
2021/12/13 00:00:25;;;;;;;133.27;35.80;;;;;;;;;;5046240;28;20041;-78
2021/12/13 00:03:10;;;;;;;161.43;38.10;;;;;;;;;;5050825;28;20102;-78
2021/12/13 00:05:38;;;;;;;139.80;35.88;;;;;;;;;;5049842;28;20041;-78
2021/12/13 00:08:07;;;;;;;149.32;35.30;;;;;;;;;;5053286;28;20041;-78
2021/12/13 00:10:45;;;;;;;124.72;32.67;;;;;;;;;;5053503;28;20037;-78
2021/12/13 00:13:15;;;;;;;126.40;34.30;;;;;;;;;;5053247;28;20041;-78
2021/12/13 00:15:46;;;;;;;128.50;32.38;;;;;;;;;;5052611;28;20102;-78
2021/12/13 00:18:15;;;;;;;131.90;31.90;;;;;;;;;;5052038;28;20037;-78
2021/12/13 00:20:44;;;;;;;109.40;31.25;;;;;;;;;;5053004;28;20407;-78
2021/12/13 00:23:19;;;;;;;123.95;32.63;;;;;;;;;;5052131;28;20041;-78
2021/12/13 00:25:47;;;;;;;110.75;30.55;;;;;;;;;;5052711;28;20052;-78
2021/12/13 00:28:15;;;;;;;137.65;33.38;;;;;;;;;;5052773;28;20032;-78
2021/12/13 00:30:52;;;;;;;127.70;33.33;;;;;;;;;;5052510;28;20033;-78
2021/12/13 00:33:27;;;;;;;94.35;27.77;;;;;;;;;;5053276;28;20040;-78
2021/12/13 00:36:00;;;;;;;134.00;33.72;;;;;;;;;;5052464;28;20064;-78
2021/12/13 00:38:29;;;;;;;114.47;31.90;;;;;;;;;;5033247;28;20061;-78
2021/12/13 00:41:01;;;;;;;118.38;33.83;;;;;;;;;;5039870;28;20517;-78
2021/12/13 00:43:29;;;;;;;125.18;33.47;;;;;;;;;;5052922;28;20048;-78
2021/12/13 00:46:00;;;;;;;121.00;32.50;;;;;;;;;;5052678;28;20180;-78
2021/12/13 00:48:27;;;;;;;131.20;32.42;;;;;;;;;;5053390;28;20041;-78
2021/12/13 00:51:11;;;;;;;114.95;32.58;;;;;;;;;;5052197;28;20065;-77
2021/12/13 00:53:40;;;;;;;100.72;29.40;;;;;;;;;;5052890;28;20041;-77
2021/12/13 00:56:25;;;;;;;111.32;31.67;;;;;;;;;;5052762;28;20037;-78
2021/12/13 00:58:51;;;;;;;125.65;32.55;;;;;;;;;;5051970;28;20086;-77
2021/12/13 01:01:17;;;;;;;119.45;30.45;;;;;;;;;;5051340;28;20457;-78
2021/12/13 01:03:46;;;;;;;111.85;31.67;;;;;;;;;;5052601;28;20508;-78
2021/12/13 01:06:48;;;;;;;122.70;31.58;;;;;;;;;;5052281;28;20036;-77
2021/12/13 01:09:23;;;;;;;123.60;31.45;;;;;;;;;;4990969;28;20108;-78
2021/12/13 01:11:51;;;;;;;124.20;30.70;;;;;;;;;;5042621;28;20049;-78
2021/12/13 01:14:21;;;;;;;114.75;29.88;;;;;;;;;;5052320;28;20570;-79
2021/12/13 01:17:00;;;;;;;118.50;31.50;;;;;;;;;;5051649;28;20124;-79
2021/12/13 01:19:46;;;;;;;115.63;30.48;;;;;;;;;;5052696;28;20044;-79
2021/12/13 01:23:00;;;;;;;85.22;25.75;;;;;;;;;;5036134;28;20056;-77
2021/12/13 01:25:25;;;;;;;107.68;28.60;;;;;;;;;;5048659;28;20037;-76
2021/12/13 01:27:54;;;;;;;117.63;29.35;;;;;;;;;;5051812;28;20407;-76
2021/12/13 01:30:24;;;;;;;122.72;29.63;;;;;;;;;;5051266;28;20083;-76
2021/12/13 01:32:53;;;;;;;123.90;29.50;;;;;;;;;;5052363;28;20045;-76
2021/12/13 01:35:22;;;;;;;107.00;28.88;;;;;;;;;;5051627;28;20047;-76
2021/12/13 01:37:52;;;;;;;109.60;28.10;;;;;;;;;;5051948;28;20076;-77
2021/12/13 01:40:20;;;;;;;104.65;27.55;;;;;;;;;;5051461;28;20037;-76
2021/12/13 01:42:53;;;;;;;92.38;27.38;;;;;;;;;;5051231;28;20044;-76
2021/12/13 01:45:19;;;;;;;85.60;25.67;;;;;;;;;;5049400;28;20394;-77
2021/12/13 01:47:46;;;;;;;80.90;25.02;;;;;;;;;;5051785;28;20391;-78
2021/12/13 01:50:18;;;;;;;84.72;25.40;;;;;;;;;;5051495;28;20039;-78
2021/12/13 01:52:45;;;;;;;74.45;23.75;;;;;;;;;;5051550;28;20040;-78
2021/12/13 01:55:14;;;;;;;73.47;24.55;;;;;;;;;;5051195;28;20434;-78
2021/12/13 01:57:47;;;;;;;68.63;23.75;;;;;;;;;;5051304;28;20041;-78
2021/12/13 02:00:21;;;;;;;66.90;22.30;;;;;;;;;;5051272;28;20041;-78
2021/12/13 02:02:52;;;;;;;64.45;22.15;;;;;;;;;;5051237;28;20044;-77
2021/12/13 02:05:21;;;;;;;54.70;20.80;;;;;;;;;;5051349;28;20490;-77
2021/12/13 02:07:50;;;;;;;61.08;20.27;;;;;;;;;;5050763;28;20414;-77
2021/12/13 02:10:29;;;;;;;51.25;19.60;;;;;;;;;;5051705;28;20398;-77
2021/12/13 02:13:01;;;;;;;48.90;19.83;;;;;;;;;;5051594;28;20461;-77
2021/12/13 02:18:15;;;;;;;49.60;18.60;;;;;;;;;;5050593;28;20045;-76
2021/12/13 02:20:44;;;;;;;52.53;19.73;;;;;;;;;;5051120;28;20033;-77
2021/12/13 02:23:10;;;;;;;51.00;18.67;;;;;;;;;;5051151;28;20048;-76
2021/12/13 02:25:38;;;;;;;52.60;19.17;;;;;;;;;;5051110;28;20109;-77
2021/12/13 02:28:04;;;;;;;54.55;19.45;;;;;;;;;;5051026;28;20041;-77
2021/12/13 02:30:30;;;;;;;45.10;18.52;;;;;;;;;;5050801;28;20108;-77
2021/12/13 02:32:57;;;;;;;49.97;19.05;;;;;;;;;;5050857;28;20504;-77
2021/12/13 02:35:24;;;;;;;48.97;19.40;;;;;;;;;;5051311;28;20037;-76
2021/12/13 02:37:51;;;;;;;41.25;18.83;;;;;;;;;;5050001;28;20048;-77
2021/12/13 02:40:18;;;;;;;53.55;19.95;;;;;;;;;;5049538;28;20120;-77
2021/12/13 02:42:44;;;;;;;54.65;21.52;;;;;;;;;;5047190;28;20041;-76
2021/12/13 02:45:14;;;;;;;60.22;21.42;;;;;;;;;;5047975;28;20033;-76
2021/12/13 02:47:43;;;;;;;53.35;21.73;;;;;;;;;;5053043;28;20048;-76
2021/12/13 02:50:12;;;;;;;52.60;21.48;;;;;;;;;;5054075;28;20060;-76
2021/12/13 02:52:39;;;;;;;49.08;19.52;;;;;;;;;;5054053;28;20044;-75
2021/12/13 02:55:08;;;;;;;47.58;19.65;;;;;;;;;;5052313;28;20076;-76
2021/12/13 02:57:39;;;;;;;52.97;21.23;;;;;;;;;;5064944;28;20410;-75
2021/12/13 03:00:13;;;;;;;47.50;20.92;;;;;;;;;;5059523;28;20037;-76
2021/12/13 03:02:41;;;;;;;48.72;19.67;;;;;;;;;;5050929;28;20045;-76
2021/12/13 03:05:11;;;;;;;48.15;19.70;;;;;;;;;;5052916;28;20068;-76
2021/12/13 03:07:39;;;;;;;38.03;16.58;;;;;;;;;;5052251;28;20534;-76
2021/12/13 03:10:10;;;;;;;44.30;20.25;;;;;;;;;;5054454;28;20044;-76
2021/12/13 03:12:36;;;;;;;41.55;18.80;;;;;;;;;;5054094;28;20041;-76
2021/12/13 03:15:06;;;;;;;42.70;19.30;;;;;;;;;;5054579;28;20045;-76
2021/12/13 03:17:35;;;;;;;53.42;20.25;;;;;;;;;;5054486;28;20044;-75
2021/12/13 03:20:11;;;;;;;43.63;19.67;;;;;;;;;;5054120;28;20064;-76
2021/12/13 03:22:58;;;;;;;40.22;18.35;;;;;;;;;;5054174;28;20051;-76
2021/12/13 03:25:32;;;;;;;39.00;18.83;;;;;;;;;;5054415;28;20041;-76
2021/12/13 03:28:18;;;;;;;43.53;18.38;;;;;;;;;;5054120;28;20394;-76
2021/12/13 03:30:48;;;;;;;38.22;16.85;;;;;;;;;;5053847;28;20037;-76
2021/12/13 03:33:15;;;;;;;35.55;17.08;;;;;;;;;;5054045;28;20052;-76
2021/12/13 03:35:55;;;;;;;36.35;16.48;;;;;;;;;;5054223;28;20071;-76
2021/12/13 03:38:25;;;;;;;34.92;16.77;;;;;;;;;;5053946;28;20040;-76
2021/12/13 03:40:51;;;;;;;38.80;16.23;;;;;;;;;;5053529;28;20040;-75
2021/12/13 03:43:19;;;;;;;27.77;14.07;;;;;;;;;;5053592;28;20041;-75
2021/12/13 03:45:50;;;;;;;33.72;14.77;;;;;;;;;;5051474;28;20041;-76
2021/12/13 03:48:18;;;;;;;28.25;13.50;;;;;;;;;;5053407;28;20071;-75
2021/12/13 03:50:46;;;;;;;27.38;13.77;;;;;;;;;;5053608;28;20412;-75
2021/12/13 03:53:14;;;;;;;23.40;12.50;;;;;;;;;;5053833;28;20494;-75
2021/12/13 03:55:43;;;;;;;27.50;12.50;;;;;;;;;;5054416;28;20438;-75
2021/12/13 03:58:11;;;;;;;28.25;12.40;;;;;;;;;;5053340;28;20402;-75
2021/12/13 04:00:41;;;;;;;27.92;11.15;;;;;;;;;;5053436;28;20041;-76
2021/12/13 04:03:08;;;;;;;28.27;11.95;;;;;;;;;;5053888;28;20052;-75
2021/12/13 04:05:35;;;;;;;27.98;11.10;;;;;;;;;;5053136;28;20114;-75
2021/12/13 04:08:04;;;;;;;23.60;11.02;;;;;;;;;;5052839;28;20044;-75
2021/12/13 04:10:32;;;;;;;23.17;10.40;;;;;;;;;;5052924;28;20041;-75
2021/12/13 04:13:00;;;;;;;28.75;11.65;;;;;;;;;;5053001;28;20044;-75
2021/12/13 04:15:38;;;;;;;21.45;10.20;;;;;;;;;;5053515;28;20453;-75
2021/12/13 04:18:16;;;;;;;22.15;9.68;;;;;;;;;;5053240;28;20044;-75
2021/12/13 04:20:43;;;;;;;17.13;9.35;;;;;;;;;;5035126;28;20056;-76
2021/12/13 04:23:21;;;;;;;26.23;9.90;;;;;;;;;;5052307;28;20478;-75
2021/12/13 04:25:48;;;;;;;21.77;10.48;;;;;;;;;;5033846;28;20060;-75
2021/12/13 04:28:17;;;;;;;27.80;10.18;;;;;;;;;;5050048;28;20543;-75
2021/12/13 04:30:49;;;;;;;24.38;10.38;;;;;;;;;;5052860;28;20044;-75
2021/12/13 04:33:30;;;;;;;24.45;10.77;;;;;;;;;;5052896;28;20124;-75
2021/12/13 04:36:16;;;;;;;20.98;9.85;;;;;;;;;;5053077;28;20051;-76
2021/12/13 04:38:52;;;;;;;21.55;10.30;;;;;;;;;;5052999;28;20060;-75
2021/12/13 04:41:41;;;;;;;22.20;10.63;;;;;;;;;;5051814;28;20418;-76
2021/12/13 04:44:09;;;;;;;26.90;10.05;;;;;;;;;;5039357;28;20107;-75
2021/12/13 04:46:37;;;;;;;20.58;9.40;;;;;;;;;;5053148;28;20053;-75
2021/12/13 04:49:06;;;;;;;24.63;10.95;;;;;;;;;;5052379;28;20495;-75
2021/12/13 04:51:39;;;;;;;19.25;9.30;;;;;;;;;;5052791;28;20059;-75
2021/12/13 04:54:06;;;;;;;18.00;9.02;;;;;;;;;;5052487;28;20040;-75
2021/12/13 04:56:32;;;;;;;21.10;9.73;;;;;;;;;;5051727;28;20060;-75
2021/12/13 04:59:01;;;;;;;16.95;8.93;;;;;;;;;;5052724;28;20039;-75
2021/12/13 05:01:27;;;;;;;21.63;9.80;;;;;;;;;;5047985;28;20546;-75
2021/12/13 05:03:56;;;;;;;18.77;8.93;;;;;;;;;;5064044;28;20386;-75
2021/12/13 05:06:24;;;;;;;19.80;9.60;;;;;;;;;;5056381;28;20029;-75
2021/12/13 05:08:53;;;;;;;19.80;9.07;;;;;;;;;;5050885;28;20036;-75
2021/12/13 05:11:19;;;;;;;17.83;8.43;;;;;;;;;;5051576;28;20029;-75
2021/12/13 05:13:47;;;;;;;16.65;9.00;;;;;;;;;;5052851;28;20075;-75
2021/12/13 05:16:17;;;;;;;20.23;9.73;;;;;;;;;;5052147;28;20572;-76
2021/12/13 05:18:48;;;;;;;17.13;9.38;;;;;;;;;;5051642;28;20117;-75
2021/12/13 05:21:17;;;;;;;22.02;10.23;;;;;;;;;;5051490;28;20044;-75
2021/12/13 05:23:52;;;;;;;23.88;10.27;;;;;;;;;;5050702;28;20049;-75
2021/12/13 05:26:35;;;;;;;20.25;10.18;;;;;;;;;;5051292;28;20036;-75
2021/12/13 05:29:01;;;;;;;22.50;9.52;;;;;;;;;;5049910;28;20037;-75
2021/12/13 05:31:29;;;;;;;24.08;10.90;;;;;;;;;;5050226;28;20135;-73
2021/12/13 05:33:58;;;;;;;23.02;11.18;;;;;;;;;;5051791;28;20123;-73
2021/12/13 05:36:29;;;;;;;24.45;11.45;;;;;;;;;;5052164;28;20102;-72
2021/12/13 05:38:55;;;;;;;;;;;;;;;;;;5052085;28;20064;-72
2021/12/13 05:41:26;;;;;;;28.13;11.68;;;;;;;;;;5051521;28;19955;-72
2021/12/13 05:43:53;;;;;;;25.17;11.80;;;;;;;;;;5051663;28;20491;-73
2021/12/13 05:46:23;;;;;;;23.50;12.15;;;;;;;;;;5048953;28;20029;-72
2021/12/13 05:48:51;;;;;;;26.20;12.70;;;;;;;;;;5051702;28;20036;-72
2021/12/13 05:51:20;;;;;;;26.58;13.95;;;;;;;;;;5051142;28;20033;-72
2021/12/13 05:53:47;;;;;;;29.70;13.73;;;;;;;;;;5051598;28;20029;-72
2021/12/13 05:56:17;;;;;;;24.95;13.30;;;;;;;;;;5051279;28;20036;-72
2021/12/13 05:58:43;;;;;;;31.85;15.25;;;;;;;;;;5051741;28;20127;-72
2021/12/13 06:01:22;;;;;;;32.35;13.52;;;;;;;;;;5050741;28;20120;-72
2021/12/13 06:03:57;;;;;;;27.58;14.73;;;;;;;;;;5051836;28;20556;-72
2021/12/13 06:06:26;;;;;;;28.27;14.45;;;;;;;;;;5051216;28;20033;-72
2021/12/13 06:08:54;;;;;;;33.00;15.32;;;;;;;;;;5051740;28;20032;-72
2021/12/13 06:11:21;;;;;;;32.90;15.02;;;;;;;;;;5050896;28;20040;-72
2021/12/13 06:13:48;;;;;;;31.50;16.40;;;;;;;;;;5051186;28;20040;-72
2021/12/13 06:16:26;;;;;;;38.53;16.23;;;;;;;;;;5051162;28;20041;-72
2021/12/13 06:18:58;;;;;;;32.17;16.33;;;;;;;;;;5051341;28;20383;-72
2021/12/13 06:21:39;;;;;;;38.78;17.30;;;;;;;;;;5030317;28;20128;-72
2021/12/13 06:24:05;;;;;;;40.08;17.70;;;;;;;;;;5038274;28;20033;-72
2021/12/13 06:26:32;;;;;;;40.47;18.48;;;;;;;;;;5051589;28;20035;-72
2021/12/13 06:29:00;;;;;;;38.53;17.92;;;;;;;;;;5051318;28;20087;-72
2021/12/13 06:31:35;;;;;;;37.63;18.77;;;;;;;;;;5051009;28;20095;-72
2021/12/13 06:34:02;;;;;;;46.40;18.98;;;;;;;;;;5051408;28;20033;-72
2021/12/13 06:36:36;;;;;;;41.55;19.58;;;;;;;;;;5051150;28;20041;-72
2021/12/13 06:39:13;;;;;;;45.72;20.38;;;;;;;;;;5051280;28;20041;-72
2021/12/13 06:41:39;;;;;;;44.03;20.98;;;;;;;;;;5050796;28;20394;-72
2021/12/13 06:44:07;;;;;;;50.65;20.80;;;;;;;;;;5050729;28;20033;-72
2021/12/13 06:46:33;;;;;;;48.58;21.88;;;;;;;;;;5051216;28;20068;-72
2021/12/13 06:49:06;;;;;;;49.80;22.42;;;;;;;;;;5051026;28;20080;-72
2021/12/13 06:51:40;;;;;;;50.65;22.75;;;;;;;;;;5050815;28;20073;-72
2021/12/13 06:54:15;;;;;;;54.22;23.08;;;;;;;;;;5050823;28;20041;-72
2021/12/13 06:56:43;;;;;;;53.35;22.85;;;;;;;;;;5050789;28;20068;-72
2021/12/13 06:59:10;;;;;;;50.10;23.13;;;;;;;;;;5050900;28;20072;-72
2021/12/13 07:01:37;;;;;;;48.63;23.25;;;;;;;;;;5050159;28;20044;-72
2021/12/13 07:04:05;;;;;;;51.08;23.95;;;;;;;;;;5049108;28;20073;-72
2021/12/13 07:06:31;;;;;;;48.92;23.05;;;;;;;;;;5051168;28;20091;-71
2021/12/13 07:09:04;;;;;;;49.20;23.45;;;;;;;;;;5050071;28;20041;-72
2021/12/13 07:11:39;;;;;;;53.00;25.20;;;;;;;;;;5050245;28;20422;-72
2021/12/13 07:14:09;;;;;;;50.88;23.75;;;;;;;;;;5050639;28;20514;-72
2021/12/13 07:16:39;;;;;;;55.28;25.15;;;;;;;;;;5050883;28;20124;-71
2021/12/13 07:19:20;;;;;;;47.88;24.35;;;;;;;;;;5050891;28;20037;-72
2021/12/13 07:21:54;;;;;;;65.07;26.20;;;;;;;;;;5050332;28;20106;-73
2021/12/13 07:24:43;;;;;;;51.90;24.45;;;;;;;;;;5050390;28;20045;-72
2021/12/13 07:27:12;;;;;;;53.80;25.10;;;;;;;;;;5032894;28;20410;-72
2021/12/13 07:29:49;;;;;;;57.03;26.33;;;;;;;;;;5050788;28;20033;-72
2021/12/13 07:32:27;;;;;;;50.45;24.65;;;;;;;;;;5050492;28;20112;-72
2021/12/13 07:35:05;;;;;;;49.80;24.67;;;;;;;;;;5052742;28;20451;-72
2021/12/13 07:37:40;;;;;;;49.92;24.38;;;;;;;;;;5054083;28;20087;-72
2021/12/13 07:40:17;;;;;;;54.40;25.42;;;;;;;;;;5053941;28;20049;-71
2021/12/13 07:42:53;;;;;;;54.97;24.08;;;;;;;;;;5054206;28;20077;-71
2021/12/13 07:45:24;;;;;;;53.25;25.88;;;;;;;;;;5053614;28;20104;-72
2021/12/13 07:47:50;;;;;;;54.13;25.52;;;;;;;;;;5051428;28;20033;-72
2021/12/13 07:50:19;;;;;;;56.40;25.52;;;;;;;;;;5053245;28;20036;-72
2021/12/13 07:52:52;;;;;;;56.60;26.23;;;;;;;;;;5050199;28;20442;-72
2021/12/13 07:55:22;;;;;;;50.90;24.90;;;;;;;;;;5053028;28;20109;-72
2021/12/13 07:57:48;;;;;;;57.70;26.63;;;;;;;;;;5053538;28;20052;-72
2021/12/13 08:00:16;;;;;;;55.13;25.02;;;;;;;;;;5051887;28;20482;-72
2021/12/13 08:02:53;;;;;;;53.80;25.75;;;;;;;;;;5051523;28;20037;-71
2021/12/13 08:05:22;;;;;;;53.15;25.25;;;;;;;;;;5052589;28;20074;-71
2021/12/13 08:07:54;;;;;;;53.38;25.08;;;;;;;;;;5054168;28;20119;-71
2021/12/13 08:10:25;;;;;;;48.58;24.95;;;;;;;;;;5053443;28;20076;-71
2021/12/13 08:12:53;;;;;;;57.47;25.90;;;;;;;;;;5053197;28;20045;-71
2021/12/13 08:15:21;;;;;;;52.53;26.30;;;;;;;;;;5049566;28;20055;-71
2021/12/13 08:17:49;;;;;;;50.80;25.33;;;;;;;;;;5053182;28;20045;-72
2021/12/13 08:20:21;;;;;;;48.40;25.60;;;;;;;;;;5051286;28;20043;-72
2021/12/13 08:22:50;;;;;;;51.72;24.95;;;;;;;;;;5052965;28;20371;-72
2021/12/13 08:25:21;;;;;;;49.97;23.77;;;;;;;;;;5053205;28;20048;-72
2021/12/13 08:27:53;;;;;;;49.67;25.67;;;;;;;;;;5053464;28;20132;-72
2021/12/13 08:30:27;;;;;;;43.45;22.83;;;;;;;;;;5052139;28;20043;-72
2021/12/13 08:32:57;;;;;;;50.83;24.30;;;;;;;;;;5053158;28;20040;-72
2021/12/13 08:35:23;;;;;;;46.10;22.67;;;;;;;;;;5051878;28;20036;-72
2021/12/13 08:37:54;;;;;;;42.97;22.45;;;;;;;;;;5052908;28;20052;-72
2021/12/13 08:40:23;;;;;;;47.33;23.80;;;;;;;;;;5053105;28;20044;-72
2021/12/13 08:42:49;;;;;;;46.05;24.02;;;;;;;;;;5052398;28;20441;-72
2021/12/13 08:45:30;;;;;;;42.38;22.77;;;;;;;;;;5050256;28;20394;-72
2021/12/13 08:48:02;;;;;;;41.58;21.27;;;;;;;;;;5052205;28;20112;-72
2021/12/13 08:50:31;;;;;;;44.05;22.60;;;;;;;;;;5052078;28;20489;-72
2021/12/13 08:53:00;;;;;;;41.58;22.00;;;;;;;;;;5049827;28;20036;-72
2021/12/13 08:55:31;;;;;;;40.25;22.10;;;;;;;;;;5051067;28;20036;-72
2021/12/13 08:58:00;;;;;;;46.15;23.02;;;;;;;;;;5050110;28;20040;-72
2021/12/13 09:00:35;;;;;;;48.15;23.52;;;;;;;;;;5047813;28;20095;-72
2021/12/13 09:03:11;;;;;;;44.78;22.08;;;;;;;;;;5051206;28;20036;-71
2021/12/13 09:05:39;;;;;;;40.78;21.52;;;;;;;;;;5052733;28;20115;-72
2021/12/13 09:08:09;;;;;;;44.05;22.15;;;;;;;;;;5052323;28;20064;-71
2021/12/13 09:10:47;;;;;;;47.10;24.13;;;;;;;;;;5051837;28;20068;-72
2021/12/13 09:13:14;;;;;;;43.47;21.52;;;;;;;;;;5032671;28;20049;-72
2021/12/13 09:15:41;;;;;;;47.47;24.02;;;;;;;;;;5046196;28;20075;-71
2021/12/13 09:18:08;;;;;;;48.17;24.50;;;;;;;;;;5051568;28;20044;-72
2021/12/13 09:20:34;;;;;;;41.03;22.10;;;;;;;;;;5058941;28;20037;-72
2021/12/13 09:23:17;;;;;;;43.95;22.33;;;;;;;;;;5051929;28;20041;-72
2021/12/13 09:26:02;;;;;;;43.65;22.73;;;;;;;;;;5052332;28;20037;-72
2021/12/13 09:28:49;;;;;;;42.28;21.45;;;;;;;;;;5052109;28;20052;-72
2021/12/13 09:31:21;;;;;;;39.00;20.45;;;;;;;;;;5044451;28;20052;-72
2021/12/13 09:33:50;;;;;;;45.75;21.83;;;;;;;;;;5051817;28;20538;-72
2021/12/13 09:36:33;;;;;;;44.30;22.70;;;;;;;;;;5049086;28;20044;-72
2021/12/13 09:39:04;;;;;;;41.08;21.90;;;;;;;;;;5051936;28;20039;-72
2021/12/13 09:41:30;;;;;;;45.28;22.52;;;;;;;;;;5048824;28;20041;-71
2021/12/13 09:43:56;;;;;;;45.80;21.90;;;;;;;;;;5051013;28;20186;-72
2021/12/13 09:46:28;;;;;;;41.25;21.80;;;;;;;;;;5051588;28;20040;-72
2021/12/13 09:48:55;;;;;;;41.58;21.42;;;;;;;;;;5050534;28;20372;-72
2021/12/13 09:51:30;;;;;;;39.65;20.95;;;;;;;;;;5050809;28;20495;-71
2021/12/13 09:53:58;;;;;;;38.22;20.25;;;;;;;;;;5051036;28;20215;-71
2021/12/13 09:56:26;;;;;;;39.53;20.13;;;;;;;;;;5051236;28;20037;-73
2021/12/13 09:58:54;;;;;;;41.63;19.95;;;;;;;;;;5051122;28;20033;-72
2021/12/13 10:01:33;;;;;;;40.25;20.55;;;;;;;;;;5050832;28;20040;-72
2021/12/13 10:04:08;;;;;;;40.53;20.23;;;;;;;;;;5051507;28;20044;-72
2021/12/13 10:06:39;;;;;;;43.08;21.10;;;;;;;;;;5049643;28;20047;-71
2021/12/13 10:09:11;;;;;;;36.33;19.73;;;;;;;;;;5046816;28;20033;-72
2021/12/13 10:11:38;;;;;;;36.58;19.67;;;;;;;;;;5051534;28;20072;-72
2021/12/13 10:14:06;;;;;;;38.00;20.83;;;;;;;;;;5051459;28;20099;-72
2021/12/13 10:16:36;;;;;;;38.95;19.23;;;;;;;;;;5050516;28;20410;-72
2021/12/13 10:19:04;;;;;;;40.40;19.98;;;;;;;;;;5052671;28;20044;-72
2021/12/13 10:21:31;;;;;;;36.33;20.15;;;;;;;;;;5056886;28;20047;-72
2021/12/13 10:23:59;;;;;;;36.47;17.90;;;;;;;;;;5046465;28;20164;-71
2021/12/13 10:26:28;;;;;;;37.63;19.42;;;;;;;;;;5050867;28;20060;-72
2021/12/13 10:28:55;;;;;;;36.25;18.33;;;;;;;;;;5051107;28;20428;-72
2021/12/13 10:31:32;;;;;;;39.58;19.85;;;;;;;;;;5049770;28;20037;-74
2021/12/13 10:33:59;;;;;;;32.70;18.60;;;;;;;;;;5050054;28;20119;-70
2021/12/13 10:36:28;;;;;;;42.35;19.05;;;;;;;;;;5051218;28;20097;-70
2021/12/13 10:38:55;;;;;;;32.05;17.73;;;;;;;;;;5049745;28;20041;-71
2021/12/13 10:41:23;;;;;;;35.03;18.42;;;;;;;;;;5050850;28;20064;-70
2021/12/13 10:44:00;;;;;;;34.85;17.58;;;;;;;;;;5050159;28;20128;-71
2021/12/13 10:46:28;;;;;;;32.05;17.67;;;;;;;;;;5047370;28;20033;-72
2021/12/13 10:48:57;;;;;;;31.60;16.73;;;;;;;;;;5049773;28;20041;-71
2021/12/13 10:51:29;;;;;;;32.55;18.00;;;;;;;;;;5050847;28;20045;-71
2021/12/13 10:53:57;;;;;;;32.78;17.05;;;;;;;;;;5044762;28;20515;-71
2021/12/13 10:56:25;;;;;;;28.15;16.55;;;;;;;;;;5049608;28;20558;-72
2021/12/13 10:58:53;;;;;;;32.65;16.25;;;;;;;;;;5049752;28;20391;-72
2021/12/13 11:01:24;;;;;;;32.90;17.30;;;;;;;;;;5050439;28;20037;-71
2021/12/13 11:03:52;;;;;;;32.95;17.50;;;;;;;;;;5046497;28;20041;-72
2021/12/13 11:06:19;;;;;;;29.52;16.25;;;;;;;;;;5030766;28;20055;-72
2021/12/13 11:08:45;;;;;;;31.50;17.33;;;;;;;;;;5053020;28;20041;-72
2021/12/13 11:11:31;;;;;;;32.22;16.95;;;;;;;;;;5048457;28;20137;-71
2021/12/13 11:13:59;;;;;;;34.17;17.20;;;;;;;;;;5053782;28;20072;-72
2021/12/13 11:16:29;;;;;;;30.50;16.38;;;;;;;;;;5053233;28;20044;-70
2021/12/13 11:18:55;;;;;;;30.50;16.88;;;;;;;;;;5053679;28;20044;-69
2021/12/13 11:21:30;;;;;;;34.35;16.48;;;;;;;;;;5035748;28;20033;-70
2021/12/13 11:23:57;;;;;;;31.63;16.65;;;;;;;;;;5053755;28;20028;-70
2021/12/13 11:26:24;;;;;;;29.33;15.77;;;;;;;;;;5054064;28;20035;-70
2021/12/13 11:28:50;;;;;;;30.20;15.85;;;;;;;;;;5054120;28;20041;-70
2021/12/13 11:31:40;;;;;;;29.10;15.40;;;;;;;;;;5074046;28;20041;-70
2021/12/13 11:34:29;;;;;;;30.80;16.10;;;;;;;;;;5053230;28;20067;-70
2021/12/13 11:37:07;;;;;;;32.00;16.52;;;;;;;;;;5054093;28;20073;-70
2021/12/13 11:39:42;;;;;;;26.88;13.73;;;;;;;;;;5053598;28;20549;-70
2021/12/13 11:42:27;;;;;;;26.70;15.38;;;;;;;;;;5047862;28;20044;-70
2021/12/13 11:44:59;;;;;;;30.52;16.42;;;;;;;;;;5051177;28;20036;-71
2021/12/13 11:47:32;;;;;;;29.50;15.55;;;;;;;;;;5053471;28;20033;-70
2021/12/13 11:50:09;;;;;;;27.42;16.17;;;;;;;;;;5051582;28;20041;-71
2021/12/13 11:52:47;;;;;;;28.75;15.32;;;;;;;;;;5053006;28;20119;-70
2021/12/13 11:55:35;;;;;;;25.42;15.32;;;;;;;;;;5037624;28;20156;-71
2021/12/13 11:58:01;;;;;;;30.35;16.80;;;;;;;;;;5052956;28;20045;-71
2021/12/13 12:00:46;;;;;;;30.63;16.60;;;;;;;;;;5053755;28;20036;-70
2021/12/13 12:03:30;;;;;;;33.80;16.23;;;;;;;;;;5052744;28;20179;-71
2021/12/13 12:06:19;;;;;;;28.15;16.30;;;;;;;;;;5057282;28;20044;-71
2021/12/13 12:09:04;;;;;;;28.95;16.73;;;;;;;;;;5053262;28;20101;-70
2021/12/13 12:11:30;;;;;;;27.45;15.80;;;;;;;;;;5042428;28;20044;-71
2021/12/13 12:14:05;;;;;;;32.30;16.45;;;;;;;;;;5052153;28;20078;-70
2021/12/13 12:16:34;;;;;;;29.80;16.02;;;;;;;;;;5051730;28;20188;-72
2021/12/13 12:19:00;;;;;;;29.30;15.63;;;;;;;;;;5048268;28;20036;-69
2021/12/13 12:21:36;;;;;;;31.35;16.35;;;;;;;;;;5051609;28;20045;-70
2021/12/13 12:24:05;;;;;;;29.42;15.70;;;;;;;;;;5070177;28;20036;-70
2021/12/13 12:26:32;;;;;;;37.50;18.10;;;;;;;;;;5056959;28;20040;-71
2021/12/13 12:29:02;;;;;;;26.83;15.10;;;;;;;;;;5051209;28;20040;-69
2021/12/13 12:31:30;;;;;;;28.35;15.85;;;;;;;;;;5046631;28;20427;-71
2021/12/13 12:33:58;;;;;;;28.63;15.88;;;;;;;;;;5051078;28;20087;-70
2021/12/13 12:36:36;;;;;;;31.30;16.85;;;;;;;;;;5052565;28;20029;-69
2021/12/13 12:39:03;;;;;;;29.08;15.93;;;;;;;;;;5052394;28;20041;-71
2021/12/13 12:41:46;;;;;;;29.23;16.40;;;;;;;;;;5051945;28;20593;-71
2021/12/13 12:44:19;;;;;;;26.60;16.77;;;;;;;;;;5048150;28;20104;-71
2021/12/13 12:46:45;;;;;;;30.30;16.63;;;;;;;;;;5051212;28;20159;-72
2021/12/13 12:49:24;;;;;;;28.73;16.67;;;;;;;;;;5048332;28;20159;-71
2021/12/13 12:51:52;;;;;;;28.60;17.52;;;;;;;;;;5040706;28;20080;-71
2021/12/13 12:54:19;;;;;;;35.17;21.23;;;;;;;;;;5032976;28;20061;-71
2021/12/13 12:56:47;;;;;;;48.95;29.92;;;;;;;;;;5034034;28;20052;-71
2021/12/13 12:59:30;;;;;;;48.47;30.83;;;;;;;;;;5050404;28;20041;-72
2021/12/13 13:01:58;;;;;;;41.75;23.75;;;;;;;;;;5050581;28;20170;-70
2021/12/13 13:04:38;;;;;;;30.08;16.67;;;;;;;;;;5044491;28;20522;-70
2021/12/13 13:07:07;;;;;;;34.90;20.75;;;;;;;;;;5052321;28;20065;-72
2021/12/13 13:09:36;;;;;;;37.00;21.23;;;;;;;;;;5050150;28;20029;-71
2021/12/13 13:12:03;;;;;;;37.35;21.50;;;;;;;;;;5047255;28;20048;-71
2021/12/13 13:14:30;;;;;;;27.90;17.33;;;;;;;;;;5039708;28;20140;-70
2021/12/13 13:17:06;;;;;;;30.67;17.67;;;;;;;;;;5035482;28;20095;-72
2021/12/13 13:19:40;;;;;;;31.23;16.27;;;;;;;;;;5048589;28;20087;-75
2021/12/13 13:22:10;;;;;;;31.55;16.70;;;;;;;;;;5051671;28;20090;-75
2021/12/13 13:24:43;;;;;;;33.58;18.70;;;;;;;;;;5051327;28;20121;-75
2021/12/13 13:27:10;;;;;;;32.33;17.33;;;;;;;;;;5048904;28;20040;-75
2021/12/13 13:29:37;;;;;;;34.00;23.90;;;;;;;;;;5049114;28;20064;-75
2021/12/13 13:32:05;;;;;;;28.13;17.15;;;;;;;;;;5046488;28;20071;-75
2021/12/13 13:34:36;;;;;;;25.55;17.02;;;;;;;;;;5043367;28;20044;-75
2021/12/13 13:37:02;;;;;;;;;;;;;;;;;;5047480;28;20037;-75
2021/12/13 13:39:33;;;;;;;28.23;16.02;;;;;;;;;;5040740;28;19925;-74
2021/12/13 13:42:05;;;;;;;32.17;19.95;;;;;;;;;;5037774;28;20045;-74
2021/12/13 13:44:37;;;;;;;34.97;22.05;;;;;;;;;;5051048;28;20051;-74
2021/12/13 13:47:07;;;;;;;44.72;29.13;;;;;;;;;;5044627;28;20060;-74
2021/12/13 13:49:33;;;;;;;34.20;21.50;;;;;;;;;;5042701;28;20041;-74
2021/12/13 13:52:09;;;;;;;30.70;19.20;;;;;;;;;;5040711;28;20033;-74
2021/12/13 13:54:35;;;;;;;30.77;16.35;;;;;;;;;;5048828;28;20072;-74
2021/12/13 13:57:01;;;;;;;26.63;15.40;;;;;;;;;;5046242;28;20110;-74
2021/12/13 13:59:27;;;;;;;28.98;15.57;;;;;;;;;;5042410;28;20045;-73
2021/12/13 14:02:04;;;;;;;23.13;15.30;;;;;;;;;;5032379;28;20148;-74
2021/12/13 14:04:40;;;;;;;24.60;14.40;;;;;;;;;;5048887;28;20044;-74
2021/12/13 14:07:08;;;;;;;25.15;14.23;;;;;;;;;;5041907;28;20098;-74
2021/12/13 14:09:40;;;;;;;64.75;33.53;;;;;;;;;;5046633;28;20525;-73
2021/12/13 14:12:11;;;;;;;36.85;20.88;;;;;;;;;;5048870;28;20037;-72
2021/12/13 14:14:52;;;;;;;33.05;16.73;;;;;;;;;;5037242;28;20433;-74
2021/12/13 14:17:33;;;;;;;24.63;14.37;;;;;;;;;;5046126;28;20028;-73
2021/12/13 14:20:03;;;;;;;25.63;14.23;;;;;;;;;;5051244;28;20041;-73
2021/12/13 14:22:33;;;;;;;26.10;14.43;;;;;;;;;;5050800;28;20045;-73
2021/12/13 14:24:59;;;;;;;24.40;13.48;;;;;;;;;;5050962;28;20044;-73
2021/12/13 14:27:26;;;;;;;26.10;14.25;;;;;;;;;;5051136;28;20045;-73
2021/12/13 14:30:07;;;;;;;26.23;15.95;;;;;;;;;;5051285;28;20041;-73
2021/12/13 14:32:33;;;;;;;33.85;23.83;;;;;;;;;;5050488;28;20126;-73
2021/12/13 14:35:10;;;;;;;33.42;20.65;;;;;;;;;;5051055;28;20088;-73
2021/12/13 14:37:37;;;;;;;31.23;20.15;;;;;;;;;;5050829;28;20045;-73
2021/12/13 14:40:03;;;;;;;26.55;15.23;;;;;;;;;;5050454;28;20124;-73
2021/12/13 14:42:29;;;;;;;29.67;14.50;;;;;;;;;;5051760;28;20047;-73